createdAt,value
2023-04-16T00:00:57.699Z,102056.13
2023-04-16T00:03:29.752Z,102054.78
2023-04-16T00:06:01.954Z,102063.03
2023-04-16T00:08:35.664Z,102061.63
2023-04-16T00:11:07.593Z,102066.31
2023-04-16T00:13:39.371Z,102062.44
2023-04-16T00:16:11.360Z,102061.31
2023-04-16T00:18:43.222Z,102061.03
2023-04-16T00:21:15.649Z,102063.50
2023-04-16T00:23:47.386Z,102064.31
2023-04-16T00:26:18.995Z,102064.31
2023-04-16T00:28:51.460Z,102059.63
2023-04-16T00:31:33.896Z,102059.03
2023-04-16T00:34:08.315Z,102061.78
2023-04-16T00:36:40.006Z,102057.41
2023-04-16T00:39:11.743Z,102057.09
2023-04-16T00:41:44.254Z,102052.41
2023-04-16T00:44:15.990Z,102053.84
2023-04-16T00:46:47.897Z,102052.72
2023-04-16T00:49:20.032Z,102050.28
2023-04-16T00:51:51.850Z,102055.78
2023-04-16T00:54:26.252Z,102056.34
2023-04-16T00:56:59.776Z,102058.81
2023-04-16T00:59:32.501Z,102062.38
2023-04-16T01:02:04.266Z,102062.09
2023-04-16T01:04:36.647Z,102061.78
2023-04-16T01:07:08.447Z,102061.50
2023-04-16T01:09:40.148Z,102071.88
2023-04-16T01:12:11.861Z,102063.94
2023-04-16T01:14:44.048Z,102067.19
2023-04-16T01:17:15.849Z,102063.34
2023-04-16T01:19:47.543Z,102064.97
2023-04-16T01:22:19.347Z,102059.47
2023-04-16T01:24:51.027Z,102063.34
2023-04-16T01:27:22.652Z,102065.81
2023-04-16T01:29:56.327Z,102058.38
2023-04-16T01:32:40.993Z,102068.25
2023-04-16T01:35:13.603Z,102057.25
2023-04-16T01:37:45.309Z,102055.63
2023-04-16T01:40:18.780Z,102056.44
2023-04-16T01:42:51.600Z,102054.81
2023-04-16T01:45:25.872Z,102054.81
2023-04-16T01:47:57.599Z,102047.38
2023-04-16T01:50:30.242Z,102061.94
2023-04-16T01:53:04.919Z,102047.91
2023-04-16T01:55:36.910Z,102054.50
2023-04-16T01:58:10.968Z,102057.25
2023-04-16T02:00:43.207Z,102063.88
2023-04-16T02:03:17.635Z,102066.63
2023-04-16T02:05:49.647Z,102066.09
2023-04-16T02:08:21.291Z,102061.41
2023-04-16T02:10:53.490Z,102060.31
2023-04-16T02:13:26.172Z,102069.94
2023-04-16T02:15:58.304Z,102060.88
2023-04-16T02:18:47.919Z,102061.69
2023-04-16T02:21:20.957Z,102058.38
2023-04-16T02:23:53.037Z,102068.25
2023-04-16T02:26:31.321Z,102066.03
2023-04-16T02:29:09.530Z,102063.56
2023-04-16T02:31:47.089Z,102063.28
2023-04-16T02:34:19.169Z,102060.25
2023-04-16T02:36:50.865Z,102061.88
2023-04-16T02:39:22.612Z,102065.75
2023-04-16T02:41:54.369Z,102067.66
2023-04-16T02:44:26.203Z,102068.78
2023-04-16T02:46:57.968Z,102074.28
2023-04-16T02:49:29.711Z,102067.66
2023-04-16T02:52:01.439Z,102067.16
2023-04-16T02:54:33.928Z,102061.34
2023-04-16T02:57:06.130Z,102068.19
2023-04-16T02:59:38.623Z,102071.25
2023-04-16T03:02:10.341Z,102063.81
2023-04-16T03:04:42.599Z,102065.44
2023-04-16T03:07:14.515Z,102067.91
2023-04-16T03:09:46.245Z,102071.47
2023-04-16T03:12:18.049Z,102072.50
2023-04-16T03:14:52.524Z,102075.78
2023-04-16T03:17:24.271Z,102084.84
2023-04-16T03:19:55.967Z,102079.13
2023-04-16T03:22:27.701Z,102083.19
2023-04-16T03:24:59.334Z,102094.75
2023-04-16T03:27:31.156Z,102083.53
2023-04-16T03:30:04.734Z,102081.88
2023-04-16T03:32:40.717Z,102087.97
2023-04-16T03:35:12.824Z,102087.69
2023-04-16T03:37:44.593Z,102092.66
2023-04-16T03:40:16.302Z,102092.38
2023-04-16T03:42:48.190Z,102091.53
2023-04-16T03:45:19.841Z,102095.41
2023-04-16T03:47:54.171Z,102086.88
2023-04-16T03:50:28.718Z,102092.38
2023-04-16T03:53:00.476Z,102092.66
2023-04-16T03:55:32.222Z,102097.03
2023-04-16T03:58:04.948Z,102089.63
2023-04-16T04:00:37.679Z,102092.06
2023-04-16T04:03:18.708Z,102088.78
2023-04-16T04:05:52.774Z,102090.72
2023-04-16T04:08:34.695Z,102087.16
2023-04-16T04:11:08.265Z,102092.38
2023-04-16T04:13:40.814Z,102096.50
2023-04-16T04:16:12.957Z,102095.16
2023-04-16T04:18:44.782Z,102092.22
2023-04-16T04:21:16.820Z,102102.41
2023-04-16T04:23:48.518Z,102093.63
2023-04-16T04:26:20.159Z,102102.69
2023-04-16T04:28:51.955Z,102106.78
2023-04-16T04:31:24.000Z,102104.56
2023-04-16T04:33:55.738Z,102102.31
2023-04-16T04:36:27.514Z,102112.53
2023-04-16T04:38:59.892Z,102103.44
2023-04-16T04:41:33.187Z,102111.69
2023-04-16T04:44:06.554Z,102116.38
2023-04-16T04:46:39.977Z,102111.69
2023-04-16T04:49:11.969Z,102127.69
2023-04-16T04:51:43.837Z,102120.25
2023-04-16T04:54:15.721Z,102124.09
2023-04-16T04:56:48.306Z,102127.69
2023-04-16T04:59:21.689Z,102128.19
2023-04-16T05:01:53.972Z,102128.19
2023-04-16T05:04:25.946Z,102139.72
2023-04-16T05:06:57.631Z,102135.34
2023-04-16T05:09:29.325Z,102138.91
2023-04-16T05:12:01.235Z,102139.19
2023-04-16T05:14:34.193Z,102138.09
2023-04-16T05:17:08.076Z,102146.88
2023-04-16T05:19:39.953Z,102147.16
2023-04-16T05:22:12.694Z,102146.34
2023-04-16T05:24:45.372Z,102142.47
2023-04-16T05:27:17.019Z,102148.28
2023-04-16T05:29:48.713Z,102148.28
2023-04-16T05:32:20.475Z,102147.44
2023-04-16T05:34:52.205Z,102143.59
2023-04-16T05:37:23.951Z,102147.16
2023-04-16T05:39:55.735Z,102156.25
2023-04-16T05:42:27.389Z,102153.50
2023-04-16T05:44:59.178Z,102155.94
2023-04-16T05:47:30.982Z,102149.63
2023-04-16T05:50:03.592Z,102152.91
2023-04-16T05:52:36.123Z,102155.34
2023-04-16T05:55:08.238Z,102169.66
2023-04-16T05:57:39.923Z,102161.09
2023-04-16T06:00:12.040Z,102158.84
2023-04-16T06:02:44.056Z,102161.84
2023-04-16T06:05:15.879Z,102161.56
2023-04-16T06:07:47.694Z,102168.09
2023-04-16T06:10:19.362Z,102164.00
2023-04-16T06:12:51.231Z,102166.47
2023-04-16T06:15:22.959Z,102171.97
2023-04-16T06:17:56.070Z,102174.41
2023-04-16T06:20:28.159Z,102174.94
2023-04-16T06:22:59.860Z,102177.13
2023-04-16T06:25:32.325Z,102177.41
2023-04-16T06:28:05.038Z,102180.09
2023-04-16T06:30:36.813Z,102185.84
2023-04-16T06:33:08.796Z,102179.72
2023-04-16T06:35:40.919Z,102191.03
2023-04-16T06:38:12.664Z,102201.97
2023-04-16T06:40:44.618Z,102191.78
2023-04-16T06:43:17.851Z,102204.13
2023-04-16T06:45:50.283Z,102208.00
2023-04-16T06:48:21.921Z,102208.53
2023-04-16T06:50:54.960Z,102219.28
2023-04-16T06:53:26.627Z,102213.75
2023-04-16T06:55:58.399Z,102214.78
2023-04-16T06:58:30.273Z,102217.84
2023-04-16T07:01:02.724Z,102214.78
2023-04-16T07:03:35.481Z,102223.84
2023-04-16T07:06:07.614Z,102221.94
2023-04-16T07:08:39.239Z,102228.28
2023-04-16T07:11:11.001Z,102225.50
2023-04-16T07:13:42.674Z,102233.41
2023-04-16T07:16:14.501Z,102229.53
2023-04-16T07:18:46.238Z,102225.09
2023-04-16T07:21:18.134Z,102236.34
2023-04-16T07:23:49.817Z,102238.81
2023-04-16T07:26:21.578Z,102237.41
2023-04-16T07:28:53.247Z,102236.50
2023-04-16T07:31:24.955Z,102235.09
2023-04-16T07:33:56.625Z,102250.72
2023-04-16T07:36:29.725Z,102238.28
2023-04-16T07:39:02.399Z,102245.97
2023-04-16T07:41:34.375Z,102246.16
2023-04-16T07:44:06.153Z,102249.75
2023-04-16T07:46:46.295Z,102253.00
2023-04-16T07:49:18.886Z,102254.88
2023-04-16T07:51:50.730Z,102261.22
2023-04-16T07:54:22.386Z,102259.81
2023-04-16T07:56:54.026Z,102269.09
2023-04-16T07:59:26.213Z,102264.94
2023-04-16T08:01:58.394Z,102275.97
2023-04-16T08:04:30.574Z,102265.44
2023-04-16T08:07:02.499Z,102272.63
2023-04-16T08:09:35.862Z,102274.25
2023-04-16T08:12:07.594Z,102281.91
2023-04-16T08:14:41.250Z,102282.97
2023-04-16T08:17:14.420Z,102284.81
2023-04-16T08:19:46.261Z,102282.59
2023-04-16T08:22:19.172Z,102288.31
2023-04-16T08:24:50.870Z,102287.94
2023-04-16T08:27:22.593Z,102289.19
2023-04-16T08:29:54.260Z,102287.59
2023-04-16T08:32:27.235Z,102288.81
2023-04-16T08:34:59.623Z,102290.47
2023-04-16T08:37:31.326Z,102295.38
2023-04-16T08:40:03.970Z,102295.09
2023-04-16T08:42:56.214Z,102303.91
2023-04-16T08:45:28.173Z,102307.22
2023-04-16T08:48:01.964Z,102308.56
2023-04-16T08:50:35.018Z,102317.88
2023-04-16T08:53:14.046Z,102314.03
2023-04-16T08:55:51.381Z,102317.78
2023-04-16T08:58:29.656Z,102319.66
2023-04-16T09:01:05.415Z,102318.84
2023-04-16T09:03:37.821Z,102320.47
2023-04-16T09:06:09.976Z,102329.50
2023-04-16T09:08:44.714Z,102322.44
2023-04-16T09:11:19.974Z,102319.78
2023-04-16T09:13:52.370Z,102326.75
2023-04-16T09:16:25.215Z,102326.59
2023-04-16T09:18:57.013Z,102326.72
2023-04-16T09:21:29.034Z,102331.50
2023-04-16T09:24:02.263Z,102331.72
2023-04-16T09:26:34.517Z,102329.16
2023-04-16T09:29:06.691Z,102326.81
2023-04-16T09:31:38.425Z,102327.50
2023-04-16T09:34:10.314Z,102338.16
2023-04-16T09:36:42.069Z,102334.25
2023-04-16T09:39:22.535Z,102332.50
2023-04-16T09:41:55.120Z,102329.13
2023-04-16T09:44:41.097Z,102339.25
2023-04-16T09:47:12.885Z,102347.03
2023-04-16T09:49:45.621Z,102346.72
2023-04-16T09:52:21.103Z,102350.00
2023-04-16T09:54:54.018Z,102347.13
2023-04-16T09:57:26.176Z,102343.13
2023-04-16T10:00:07.822Z,102344.53
2023-04-16T10:02:42.905Z,102340.41
2023-04-16T10:05:18.606Z,102348.78
2023-04-16T10:07:51.045Z,102353.25
2023-04-16T10:10:23.614Z,102354.66
2023-04-16T10:12:55.798Z,102347.75
2023-04-16T10:15:28.083Z,102353.34
2023-04-16T10:18:00.408Z,102348.50
2023-04-16T10:20:32.353Z,102345.94
2023-04-16T10:23:04.354Z,102349.38
2023-04-16T10:25:37.970Z,102346.34
2023-04-16T10:28:10.365Z,102341.72
2023-04-16T10:30:52.694Z,102345.06
2023-04-16T10:33:30.202Z,102346.91
2023-04-16T10:36:12.374Z,102359.66
2023-04-16T10:38:50.973Z,102352.50
2023-04-16T10:41:22.820Z,102357.91
2023-04-16T10:44:06.611Z,102349.28
2023-04-16T10:46:40.597Z,102351.72
2023-04-16T10:49:24.520Z,102345.22
2023-04-16T10:52:02.238Z,102348.13
2023-04-16T10:54:36.723Z,102348.13
2023-04-16T10:57:15.005Z,102351.88
2023-04-16T10:59:49.205Z,102340.78
2023-04-16T11:02:21.211Z,102339.69
2023-04-16T11:04:57.685Z,102345.53
2023-04-16T11:07:35.113Z,102340.97
2023-04-16T11:10:12.744Z,102343.97
2023-04-16T11:12:48.550Z,102337.13
2023-04-16T11:15:20.287Z,102335.66
2023-04-16T11:17:52.711Z,102334.03
2023-04-16T11:20:27.080Z,102340.22
2023-04-16T11:22:58.994Z,102345.78
2023-04-16T11:25:31.857Z,102337.75
2023-04-16T11:28:03.688Z,102342.84
2023-04-16T11:30:38.380Z,102337.63
2023-04-16T11:33:12.377Z,102341.19
2023-04-16T11:35:45.856Z,102342.81
2023-04-16T11:38:18.787Z,102337.38
2023-04-16T11:40:51.537Z,102337.03
2023-04-16T11:43:23.277Z,102345.34
2023-04-16T11:46:01.628Z,102338.84
2023-04-16T11:48:52.505Z,102335.25
2023-04-16T11:51:24.292Z,102328.81
2023-04-16T11:53:56.254Z,102329.59
2023-04-16T11:56:30.986Z,102327.66
2023-04-16T11:59:17.980Z,102333.72
2023-04-16T12:01:57.610Z,102336.81
2023-04-16T12:04:29.901Z,102341.38
2023-04-16T12:07:09.781Z,102335.19
2023-04-16T12:09:44.776Z,102337.97
2023-04-16T12:12:32.129Z,102343.81
2023-04-16T12:15:05.240Z,102351.34
2023-04-16T12:17:38.609Z,102353.63
2023-04-16T12:20:15.779Z,102353.78
2023-04-16T12:22:49.637Z,102357.38
2023-04-16T12:25:24.822Z,102362.91
2023-04-16T12:27:58.087Z,102358.69
2023-04-16T12:30:31.036Z,102353.97
2023-04-16T12:33:19.528Z,102360.66
2023-04-16T12:35:51.764Z,102358.69
2023-04-16T12:38:24.626Z,102366.53
2023-04-16T12:40:57.785Z,102354.94
2023-04-16T12:43:29.699Z,102356.56
2023-04-16T12:46:04.136Z,102359.34
2023-04-16T12:48:36.281Z,102364.91
2023-04-16T12:51:08.181Z,102362.13
2023-04-16T12:53:40.137Z,102358.34
2023-04-16T12:56:11.994Z,102363.59
2023-04-16T12:58:43.784Z,102365.22
2023-04-16T13:01:15.537Z,102374.06
2023-04-16T13:03:48.796Z,102370.78
2023-04-16T13:06:21.224Z,102367.34
2023-04-16T13:08:57.048Z,102354.47
2023-04-16T13:11:29.143Z,102357.22
2023-04-16T13:14:00.980Z,102367.84
2023-04-16T13:16:33.033Z,102357.22
2023-04-16T13:19:05.435Z,102360.16
2023-04-16T13:21:37.342Z,102356.06
2023-04-16T13:24:09.069Z,102364.06
2023-04-16T13:26:43.355Z,102363.56
2023-04-16T13:29:15.455Z,102361.13
2023-04-16T13:31:47.893Z,102366.69
2023-04-16T13:34:20.230Z,102363.72
2023-04-16T13:36:52.948Z,102368.78
2023-04-16T13:39:25.393Z,102367.97
2023-04-16T13:41:57.489Z,102366.16
2023-04-16T13:44:29.619Z,102369.59
2023-04-16T13:47:01.554Z,102365.66
2023-04-16T13:49:35.936Z,102352.94
2023-04-16T13:52:08.047Z,102358.00
2023-04-16T13:54:40.565Z,102362.25
2023-04-16T13:57:24.372Z,102363.88
2023-04-16T13:59:56.406Z,102360.63
2023-04-16T14:02:28.315Z,102364.34
2023-04-16T14:05:00.295Z,102356.69
2023-04-16T14:07:32.616Z,102361.44
2023-04-16T14:10:04.762Z,102362.09
2023-04-16T14:12:37.622Z,102355.75
2023-04-16T14:15:10.336Z,102347.09
2023-04-16T14:17:44.116Z,102351.66
2023-04-16T14:20:15.935Z,102353.47
2023-04-16T14:22:47.856Z,102353.63
2023-04-16T14:25:19.580Z,102356.41
2023-04-16T14:27:51.499Z,102352.81
2023-04-16T14:30:23.302Z,102346.59
2023-04-16T14:32:55.101Z,102348.88
2023-04-16T14:35:27.251Z,102348.88
2023-04-16T14:37:59.186Z,102340.22
2023-04-16T14:40:31.350Z,102346.25
2023-04-16T14:43:03.233Z,102344.78
2023-04-16T14:45:35.363Z,102351.31
2023-04-16T14:48:07.749Z,102349.84
2023-04-16T14:50:43.578Z,102355.91
2023-04-16T14:53:16.079Z,102351.66
2023-04-16T14:55:48.252Z,102352.50
2023-04-16T14:58:20.514Z,102359.19
2023-04-16T15:00:52.598Z,102364.06
2023-04-16T15:03:25.630Z,102356.56
2023-04-16T15:05:58.442Z,102370.09
2023-04-16T15:08:30.265Z,102363.00
2023-04-16T15:11:02.268Z,102359.72
2023-04-16T15:13:34.431Z,102363.94
2023-04-16T15:16:06.421Z,102373.03
2023-04-16T15:18:38.351Z,102369.28
2023-04-16T15:21:12.407Z,102377.59
2023-04-16T15:23:44.558Z,102378.84
2023-04-16T15:26:16.351Z,102376.19
2023-04-16T15:28:48.090Z,102377.91
2023-04-16T15:31:21.029Z,102374.28
2023-04-16T15:33:54.443Z,102374.75
2023-04-16T15:36:26.797Z,102382.03
2023-04-16T15:38:58.974Z,102372.22
2023-04-16T15:41:31.885Z,102385.72
2023-04-16T15:44:03.646Z,102385.19
2023-04-16T15:46:35.514Z,102382.22
2023-04-16T15:49:07.293Z,102384.00
2023-04-16T15:51:39.752Z,102380.22
2023-04-16T15:54:11.439Z,102384.94
2023-04-16T15:56:43.448Z,102380.22
2023-04-16T15:59:15.369Z,102376.66
2023-04-16T16:01:47.519Z,102375.00
2023-04-16T16:04:21.803Z,102382.31
2023-04-16T16:06:54.561Z,102376.53
2023-04-16T16:09:26.773Z,102382.38
2023-04-16T16:12:02.094Z,102376.84
2023-04-16T16:14:34.174Z,102375.72
2023-04-16T16:17:06.091Z,102378.69
2023-04-16T16:19:38.024Z,102379.31
2023-04-16T16:22:10.374Z,102385.78
2023-04-16T16:24:42.416Z,102382.03
2023-04-16T16:27:14.423Z,102386.66
2023-04-16T16:29:46.808Z,102388.28
2023-04-16T16:32:19.009Z,102390.75
2023-04-16T16:34:51.157Z,102397.91
2023-04-16T16:37:22.943Z,102388.91
2023-04-16T16:39:54.820Z,102390.34
2023-04-16T16:42:27.310Z,102394.25
2023-04-16T16:44:59.259Z,102389.53
2023-04-16T16:47:32.827Z,102386.31
2023-04-16T16:50:05.981Z,102385.09
2023-04-16T16:52:38.676Z,102398.94
2023-04-16T16:55:11.211Z,102392.59
2023-04-16T16:57:43.386Z,102399.56
2023-04-16T17:00:20.306Z,102397.91
2023-04-16T17:02:52.864Z,102403.44
2023-04-16T17:05:25.429Z,102400.78
2023-04-16T17:07:57.275Z,102401.59
2023-04-16T17:10:29.197Z,102398.66
2023-04-16T17:13:01.542Z,102402.06
2023-04-16T17:15:33.520Z,102401.22
2023-04-16T17:18:05.449Z,102395.38
2023-04-16T17:20:38.732Z,102396.19
2023-04-16T17:23:11.063Z,102392.44
2023-04-16T17:25:43.366Z,102390.78
2023-04-16T17:28:15.427Z,102397.47
2023-04-16T17:30:51.993Z,102393.84
2023-04-16T17:33:23.882Z,102392.22
2023-04-16T17:35:56.040Z,102398.38
2023-04-16T17:38:28.113Z,102397.69
2023-04-16T17:41:00.312Z,102403.00
2023-04-16T17:43:32.052Z,102400.34
2023-04-16T17:46:04.178Z,102399.84
2023-04-16T17:48:36.513Z,102406.53
2023-04-16T17:51:12.166Z,102410.72
2023-04-16T17:53:44.670Z,102404.78
2023-04-16T17:56:16.597Z,102408.16
2023-04-16T17:58:48.403Z,102418.50
2023-04-16T18:01:20.482Z,102412.78
2023-04-16T18:03:52.469Z,102416.66
2023-04-16T18:06:24.613Z,102416.25
2023-04-16T18:08:56.776Z,102417.50
2023-04-16T18:11:30.634Z,102421.19
2023-04-16T18:14:02.980Z,102424.56
2023-04-16T18:16:35.360Z,102423.22
2023-04-16T18:19:07.195Z,102431.81
2023-04-16T18:21:39.666Z,102435.72
2023-04-16T18:24:11.791Z,102425.25
2023-04-16T18:26:46.861Z,102419.53
2023-04-16T18:29:19.364Z,102424.84
2023-04-16T18:31:51.498Z,102427.69
2023-04-16T18:34:25.559Z,102431.06
2023-04-16T18:36:57.496Z,102435.88
2023-04-16T18:39:33.521Z,102439.56
2023-04-16T18:42:05.285Z,102440.75
2023-04-16T18:44:36.934Z,102445.47
2023-04-16T18:47:10.560Z,102443.56
2023-04-16T18:49:42.285Z,102439.47
2023-04-16T18:52:14.021Z,102430.66
2023-04-16T18:54:45.982Z,102441.50
2023-04-16T18:57:17.667Z,102440.75
2023-04-16T18:59:49.442Z,102444.75
2023-04-16T19:02:21.163Z,102448.41
2023-04-16T19:04:53.003Z,102444.28
2023-04-16T19:07:25.731Z,102448.78
2023-04-16T19:09:58.683Z,102446.09
2023-04-16T19:12:31.718Z,102452.50
2023-04-16T19:15:04.794Z,102451.50
2023-04-16T19:17:36.708Z,102453.19
2023-04-16T19:20:11.249Z,102458.50
2023-04-16T19:22:43.917Z,102456.03
2023-04-16T19:25:15.746Z,102461.31
2023-04-16T19:27:47.837Z,102461.91
2023-04-16T19:30:20.690Z,102463.63
2023-04-16T19:32:55.134Z,102461.78
2023-04-16T19:35:28.030Z,102463.19
2023-04-16T19:37:59.767Z,102465.13
2023-04-16T19:40:31.575Z,102474.53
2023-04-16T19:43:03.667Z,102466.25
2023-04-16T19:45:35.588Z,102475.13
2023-04-16T19:48:07.390Z,102471.22
2023-04-16T19:50:42.987Z,102472.66
2023-04-16T19:53:17.194Z,102475.19
2023-04-16T19:55:50.416Z,102465.25
2023-04-16T19:58:22.073Z,102473.53
2023-04-16T20:00:53.807Z,102468.53
2023-04-16T20:03:25.698Z,102470.69
2023-04-16T20:05:57.417Z,102469.69
2023-04-16T20:08:29.582Z,102473.00
2023-04-16T20:11:01.932Z,102472.47
2023-04-16T20:13:33.663Z,102482.47
2023-04-16T20:16:05.784Z,102480.81
2023-04-16T20:18:41.478Z,102491.03
2023-04-16T20:21:13.467Z,102487.53
2023-04-16T20:23:45.170Z,102487.28
2023-04-16T20:26:18.322Z,102486.78
2023-04-16T20:28:50.003Z,102486.81
2023-04-16T20:31:21.718Z,102487.13
2023-04-16T20:33:54.256Z,102490.75
2023-04-16T20:36:26.143Z,102500.97
2023-04-16T20:38:59.412Z,102504.59
2023-04-16T20:41:32.651Z,102491.69
2023-04-16T20:44:05.323Z,102497.22
2023-04-16T20:46:40.201Z,102501.66
2023-04-16T20:49:13.851Z,102506.13
2023-04-16T20:51:45.579Z,102501.44
2023-04-16T20:54:18.123Z,102503.88
2023-04-16T20:56:50.358Z,102508.91
2023-04-16T20:59:22.089Z,102501.53
2023-04-16T21:01:55.014Z,102506.00
2023-04-16T21:04:26.790Z,102501.88
2023-04-16T21:06:58.579Z,102507.97
2023-04-16T21:09:31.055Z,102505.50
2023-04-16T21:12:02.876Z,102510.47
2023-04-16T21:14:34.772Z,102519.31
2023-04-16T21:17:06.468Z,102511.31
2023-04-16T21:19:38.101Z,102506.97
2023-04-16T21:22:09.982Z,102510.53
2023-04-16T21:24:41.795Z,102506.97
2023-04-16T21:27:15.051Z,102514.16
2023-04-16T21:29:46.875Z,102504.78
2023-04-16T21:32:20.645Z,102507.31
2023-04-16T21:34:52.381Z,102512.28
2023-04-16T21:37:24.104Z,102512.88
2023-04-16T21:39:55.783Z,102512.88
2023-04-16T21:42:27.603Z,102506.53
2023-04-16T21:44:59.636Z,102500.50
2023-04-16T21:47:31.493Z,102497.44
2023-04-16T21:50:03.858Z,102507.63
2023-04-16T21:52:40.752Z,102502.94
2023-04-16T21:55:14.438Z,102495.81
2023-04-16T21:57:46.952Z,102487.81
2023-04-16T22:00:19.031Z,102499.69
2023-04-16T22:02:56.169Z,102496.63
2023-04-16T22:05:28.172Z,102497.16
2023-04-16T22:08:02.570Z,102491.66
2023-04-16T22:10:40.048Z,102492.47
2023-04-16T22:13:13.791Z,102488.91
2023-04-16T22:15:45.576Z,102489.44
2023-04-16T22:18:18.157Z,102489.97
2023-04-16T22:20:51.014Z,102481.72
2023-04-16T22:23:24.959Z,102486.09
2023-04-16T22:25:56.730Z,102480.31
2023-04-16T22:28:29.217Z,102484.41
2023-04-16T22:31:02.164Z,102483.28
2023-04-16T22:33:34.620Z,102487.69
2023-04-16T22:36:07.577Z,102487.38
2023-04-16T22:38:39.745Z,102487.38
2023-04-16T22:41:11.456Z,102485.47
2023-04-16T22:43:43.237Z,102487.38
2023-04-16T22:46:14.924Z,102488.75
2023-04-16T22:48:47.156Z,102489.28
2023-04-16T22:51:18.778Z,102488.69
2023-04-16T22:53:51.920Z,102489.53
2023-04-16T22:56:28.597Z,102488.69
2023-04-16T22:59:01.157Z,102490.41
2023-04-16T23:01:34.674Z,102494.78
2023-04-16T23:04:06.369Z,102495.91
2023-04-16T23:06:40.578Z,102488.19
2023-04-16T23:09:12.500Z,102487.88
2023-04-16T23:11:44.469Z,102486.78
2023-04-16T23:14:16.977Z,102484.84
2023-04-16T23:16:48.735Z,102477.66
2023-04-16T23:19:20.515Z,102482.38
2023-04-16T23:21:52.171Z,102487.06
2023-04-16T23:24:23.931Z,102483.50
2023-04-16T23:26:56.236Z,102478.56
2023-04-16T23:29:27.971Z,102477.72
2023-04-16T23:32:00.497Z,102473.63
2023-04-16T23:34:32.220Z,102475.03
2023-04-16T23:37:03.871Z,102479.19
2023-04-16T23:39:35.902Z,102475.38
2023-04-16T23:42:08.633Z,102474.34
2023-04-16T23:44:40.543Z,102476.03
2023-04-16T23:47:13.272Z,102477.44
2023-04-16T23:49:45.077Z,102486.81
2023-04-16T23:52:16.717Z,102492.31
2023-04-16T23:54:48.600Z,102489.56
2023-04-16T23:57:20.355Z,102489.84
2023-04-16T23:59:53.582Z,102492.06
